Date,TemperatureHighF,TemperatureAvgF,TemperatureLowF,DewpointHighF,DewpointAvgF,DewpointLowF,HumidityHigh,HumidityAvg,HumidityLow,PressureMaxIn,PressureMinIn,WindSpeedMaxMPH,WindSpeedAvgMPH,GustSpeedMaxMPH,PrecipitationSumIn
2013-8-1,96.6,80.6,72.3,80.7,75.3,70.1,94,85,56,30.02,29.92,0,0,0,0.14
2013-8-2,98.1,81.9,70.7,79.7,73.7,68.9,96,79,46,30.04,29.93,0,0,0,0.00
2013-8-3,98.8,84.1,72.9,78.6,74.3,70.1,94,75,45,30.08,29.99,0,0,0,0.00
2013-8-4,100.2,85.2,76.6,78.4,75.3,72.0,91,74,48,30.09,29.98,0,0,0,0.00
2013-8-5,98.2,80.6,74.1,79.7,74.1,70.6,93,82,54,30.05,29.96,0,0,0,0.35
2013-8-6,100.2,83.0,72.7,82.2,75.8,70.8,95,81,52,30.03,29.90,0,0,0,0.00
2013-8-7,90.9,85.2,79.5,80.8,77.5,74.5,89,78,70,29.98,29.92,0,0,0,0.00
2013-8-8,97.9,91.0,79.0,82.4,78.4,74.8,90,68,54,29.99,29.92,0,0,0,0.00
2013-8-9,95.2,85.0,79.2,79.6,76.3,73.9,84,76,61,30.06,29.97,0,0,0,0.00
2013-8-10,93.7,86.8,76.6,79.7,76.4,72.1,87,72,64,30.10,30.04,0,0,0,0.00
2013-8-11,91.2,80.3,73.0,81.8,76.1,69.5,94,87,67,30.14,30.08,0,0,0,0.67
2013-8-12,87.4,79.5,74.5,81.6,76.8,73.0,96,92,81,30.13,30.03,0,0,0,0.07
2013-8-14,75.7,75.7,75.7,72.3,72.3,72.3,89,89,89,29.95,29.95,0,0,0,0.00
2013-8-15,89.1,83.0,74.8,77.1,74.2,71.3,89,75,65,29.98,29.92,0,0,0,0.00
2013-8-16,88.9,77.7,72.0,75.9,72.5,70.0,95,85,61,30.01,29.93,0,0,0,1.46
2013-8-17,74.1,72.8,71.8,72.6,71.5,70.5,96,96,94,30.02,29.93,0,0,0,0.13
2013-8-18,77.5,73.0,69.6,76.6,71.9,68.4,97,97,96,30.03,29.96,0,0,0,2.71
2013-8-19,94.3,79.0,71.4,81.1,74.7,70.2,97,88,64,30.06,29.98,0,0,0,0.00
2013-8-20,84.9,76.8,69.6,78.8,73.3,67.5,94,89,79,30.10,30.00,0,0,0,0.06
2013-8-21,88.7,77.2,72.1,78.6,74.1,70.6,96,91,69,30.15,30.06,0,0,0,0.00
2013-8-26,85.8,74.3,71.4,72.2,70.7,69.6,95,90,58,30.18,30.11,114,114,114,0.00
2013-8-27,90.5,80.6,64.6,69.5,67.0,61.6,91,65,46,30.12,30.03,114,114,114,0.00
2013-8-28,94.6,89.4,77.4,73.3,71.6,67.9,72,56,50,30.06,30.01,114,114,114,0.00
2013-8-29,99.1,84.3,67.6,73.8,70.4,64.5,90,65,42,30.08,29.98,114,114,114,0.00
2013-8-30,96.1,84.6,70.9,75.3,71.8,66.8,88,67,49,30.04,29.92,114,19,114,0.00
2013-8-31,96.3,82.1,73.4,81.1,73.2,67.6,85,75,59,29.98,29.86,0,0,0,0.00